Clear Lake, Iowa
Current Conditions -  °F | °C
As of 12:53 PM on Monday 20 Oct 2014 (Local Time) from KMCW Reporting Station
Clear Clear  
Wind Chill: 65°   Ceiling: Unl
Heat Index: 65°   Visibility: 10mi
Dew Point: 43°   Wind: 17mph
Humidity: 45%   Direction: 330°NNW
Pressure: 30.01"   Gusts: 24mph
Location:  43.13°N, 93.38°W
Report Text: KMCW 201753Z AUTO 33015G21KT 10SM CLR 18/06 A3001 RMK AO2 SLP156 T01830061 10183 20039 58008
Loading
Personal Weather Stations






























Interactive Weather Map New forecast layout! Learn more

10-Day Weather Forecast

Advertisements
Track Severe Weather on mobile